Latest Coastal Weather Observations for Tasman Island

IDT60701

Issued at 12:15 pm EDT Monday 24 November 2014 (issued every 10 minutes, with the page automatically refreshed every 10 minutes)

About coastal observations | Map of coastal stations | Coastal observations for TAS | Marine services | Other Formats
Station Details ID: 094155 Name: TASMAN ISLAND Lat: -43.24 Lon: 148.00 Height: 240.0 m
Data from the previous 72 hours. | See also: Recent months at Tasman Island
Date/Time
EDT
Temp

°C
Wind Pressure Rain
since 9am
mm
Weather Cloud Vis
km
Sea
Height
m
Swell
Dir
 
Speed
knots
Gust
knots
hPa Trend Height
m
Period
s
Dir
24/12:00pm 12.7 NNW 14 25 1006.6 - 0.2 Rain - - - - - -
24/11:31am 12.5 N 18 28 1007.4 - 0.0 - - - - - - -
24/11:30am 12.6 N 19 28 1007.3 - 0.0 - - - - - - -
24/11:00am 13.9 N 19 25 1007.7 - 0.0 - - - - - - -
24/10:30am 13.6 N 14 20 1007.8 - 0.0 - - - - - - -
24/10:00am 13.0 N 9 12 1008.4 - 0.0 - - - - - - -
24/09:30am 13.5 NNE 7 13 1008.1 - 0.0 - - - - - - -
24/09:00am 13.5 N 8 11 1008.9 - 0.4 - - - - - - -
24/08:30am 14.2 N 2 5 1008.6 - 0.4 - - - - - - -
24/08:00am 13.9 NW 5 8 1008.5 - 0.4 - - - - - - -
24/07:30am 13.7 NW 7 12 1008.2 - 0.4 - - - - - - -
24/07:00am 13.9 NW 11 18 1008.7 - 0.4 - - - - - - -
24/06:30am 14.1 WNW 10 16 1008.7 - 0.4 - - - - - - -
24/06:00am 12.8 NW 14 19 1008.8 - 0.4 - - - - - - -
24/05:30am 11.8 N 10 14 1009.0 - 0.4 - - - - - - -
24/05:00am 11.4 N 9 12 1009.3 - 0.4 - - - - - - -
24/04:30am 11.8 N 10 14 1009.1 - 0.4 - - - - - - -
24/04:00am 11.8 N 11 15 1009.2 - 0.4 - - - - - - -
24/03:30am 12.1 N 15 19 1009.7 - 0.4 - - - - - - -
24/03:00am 12.1 NNE 10 19 1009.8 - 0.4 - - - - - - -
24/02:30am 12.2 NNE 13 17 1010.0 - 0.4 - - - - - - -
24/02:00am 12.0 NNE 13 18 1010.3 - 0.4 - - - - - - -
24/01:30am 12.0 NNE 13 16 1010.9 - 0.4 - - - - - - -
24/01:00am 12.0 NNE 14 19 1011.2 - 0.4 - - - - - - -
24/12:30am 12.0 NNE 10 17 1011.7 - 0.4 - - - - - - -
24/12:00am 12.0 NNE 14 18 1011.9 - 0.2 - - - - - - -
 
Date/Time
EDT
Temp

°C
Wind Pressure Rain
since 9am
mm
Weather Cloud Vis
km
Sea
Height
m
Swell
Dir
 
Speed
knots
Gust
knots
hPa Trend Height
m
Period
s
Dir
23/11:30pm 11.8 NNE 13 17 1012.1 - 0.2 - - - - - - -
23/11:00pm 11.9 NNE 11 15 1012.4 - 0.2 - - - - - - -
23/10:30pm 12.3 NNE 10 17 1012.5 - 0.2 - - - - - - -
23/10:00pm 12.2 NE 12 20 1012.2 - 0.2 - - - - - - -
23/09:30pm 12.2 NE 15 21 1012.1 - 0.2 - - - - - - -
23/09:00pm 12.1 NE 5 15 1011.7 - 0.2 - - - - - - -
23/08:30pm 12.1 E 7 15 1012.0 - 0.2 - - - - - - -
23/08:00pm 12.1 E 12 16 1011.9 - 0.2 - - - - - - -
23/07:30pm 12.0 E 10 16 1011.6 - 0.2 - - - - - - -
23/07:00pm 12.2 NE 4 13 1011.3 - 0.2 - - - - - - -
23/06:30pm 12.6 E 7 13 1010.9 - 0.2 - - - - - - -
23/06:00pm 13.3 E 3 10 1010.5 - 0.2 - - - - - - -
23/05:30pm 13.1 ESE 6 11 1010.2 - 0.2 - - - - - - -
23/05:00pm 13.1 ESE 7 10 1010.1 - 0.2 - - - - - - -
23/04:30pm 14.5 ESE 4 6 1010.1 - 0.2 - - - - - - -
23/04:00pm 14.4 SSE 5 8 1009.9 - 0.2 - - - - - - -
23/03:30pm 14.4 SSE 7 10 1009.8 - 0.2 - - - - - - -
23/03:00pm 14.8 S 7 11 1009.7 - 0.2 - - - - - - -
23/02:30pm 15.0 S 8 11 1009.7 - 0.2 - - - - - - -
23/02:00pm 14.5 S 9 12 1009.5 - 0.2 - - - - - - -
23/01:30pm 15.2 SSW 9 13 1009.3 - 0.2 - - - - - - -
23/01:00pm 15.0 S 10 13 1009.4 - 0.2 - - - - - - -
23/12:30pm 15.2 S 8 12 1009.4 - 0.2 - - - - - - -
23/12:00pm 15.3 SSW 7 15 1009.3 - 0.2 - - - - - - -
23/11:30am 15.3 ESE 2 7 1009.1 - 0.2 - - - - - - -
23/11:00am 14.6 SW 10 14 1008.7 - 0.2 - - - - - - -
23/10:30am 14.7 SSW 7 12 1008.9 - 0.2 - - - - - - -
23/10:00am 14.8 SSW 7 13 1008.6 - 0.0 - - - - - - -
23/09:30am 14.3 SW 6 14 1008.2 - 0.0 - - - - - - -
23/09:00am 13.5 SW 9 18 1007.6 - 0.0 - - - - - - -
23/08:30am 13.1 WSW 7 14 1007.5 - 0.0 - - - - - - -
23/08:00am 13.0 WSW 8 14 1007.3 - 0.0 - - - - - - -
23/07:30am 12.2 SW 11 18 1006.4 - 0.0 - - - - - - -
23/07:00am 11.9 SW 10 18 1006.0 - 0.0 - - - - - - -
23/06:30am 11.5 SSW 10 19 1005.7 - 0.0 - - - - - - -
23/06:00am 11.4 SW 13 24 1005.1 - 0.0 - - - - - - -
23/05:30am 11.6 SSW 9 17 1004.8 - 0.0 - - - - - - -
23/05:00am 11.8 SSW 8 15 1004.5 - 0.0 - - - - - - -
23/04:30am 12.2 W 8 13 1004.2 - 0.0 - - - - - - -
23/04:00am 12.9 W 6 14 1003.5 - 0.0 - - - - - - -
23/03:30am 13.4 W 7 12 1003.4 - 0.0 - - - - - - -
23/03:00am 13.2 W 8 14 1003.7 - 0.0 - - - - - - -
23/02:30am 12.5 W 6 13 1003.5 - 0.0 - - - - - - -
23/02:00am 14.0 NW 7 9 1003.4 - 0.0 - - - - - - -
23/01:30am 14.5 N 4 7 1003.3 - 0.0 - - - - - - -
23/01:00am 13.6 NE 6 7 1003.3 - 0.0 - - - - - - -
23/12:30am 14.1 E 7 9 1003.8 - 0.0 - - - - - - -
23/12:00am 14.0 E 5 8 1003.8 - 0.0 - - - - - - -
 
Date/Time
EDT
Temp

°C
Wind Pressure Rain
since 9am
mm
Weather Cloud Vis
km
Sea
Height
m
Swell
Dir
 
Speed
knots
Gust
knots
hPa Trend Height
m
Period
s
Dir
22/11:30pm 13.7 E 6 8 1003.8 - 0.0 - - - - - - -
22/11:00pm 13.8 E 4 5 1004.2 - 0.0 - - - - - - -
22/10:30pm 14.1 E 4 5 1004.3 - 0.0 - - - - - - -
22/10:00pm 14.3 SE 4 6 1004.5 - 0.0 - - - - - - -
22/09:30pm 15.0 SSW 3 4 1004.4 - 0.0 - - - - - - -
22/09:00pm 15.1 SW 4 7 1004.4 - 0.0 - - - - - - -
22/08:30pm 14.5 WSW 6 8 1004.5 - 0.0 - - - - - - -
22/08:00pm 14.7 SW 6 7 1004.5 - 0.0 - - - - - - -
22/07:30pm 15.0 SW 6 7 1004.2 - 0.0 - - - - - - -
22/07:00pm 16.1 SSW 4 5 1004.0 - 0.0 - - - - - - -
22/06:30pm 16.3 SSW 5 8 1003.9 - 0.0 - - - - - - -
22/06:00pm 15.2 W 5 8 1004.4 - 0.0 - - - - - - -
22/05:30pm 17.2 SW 4 6 1003.8 - 0.0 - - - - - - -
22/05:00pm 17.0 WNW 2 4 1004.3 - 0.0 - - - - - - -
22/04:30pm 15.5 NNE 9 15 1004.2 - 0.0 - - - - - - -
22/04:00pm 17.1 NNE 10 17 1004.1 - 0.0 - - - - - - -
22/03:30pm 18.3 N 10 16 1004.6 - 0.0 - - - - - - -
22/03:00pm 18.7 N 10 15 1004.7 - 0.0 - - - - - - -
22/02:30pm 16.5 NNW 9 11 1005.3 - 0.0 - - - - - - -
22/02:00pm 15.4 N 17 25 1005.3 - 0.0 - - - - - - -
22/01:30pm 14.0 N 16 24 1005.8 - 0.0 - - - - - - -
22/01:00pm 15.1 N 18 24 1005.8 - 0.0 - - - - - - -
22/12:30pm 15.9 N 13 19 1006.0 - 0.0 - - - - - - -
22/12:00pm 13.8 N 17 26 1006.2 - 0.0 - - - - - - -
22/11:30am 12.9 NNE 12 18 1006.6 - 0.0 - - - - - - -
22/11:00am 14.0 N 16 24 1006.3 - 0.0 - - - - - - -
22/10:30am 14.2 NNW 16 26 1006.4 - 0.0 - - - - - - -
22/10:05am 13.7 NNW 16 27 1006.6 - 0.0 - - - - - - -
22/10:00am 13.8 NNW 16 23 1006.7 - 0.0 - - - - - - -
22/09:57am 14.0 NNW 17 27 1006.7 - 0.0 - - - - - - -
22/09:30am 14.2 NW 17 26 1006.8 - 0.0 - - - - - - -
22/09:00am 14.2 NW 13 19 1007.1 - 0.2 - - - - - - -
22/08:30am 13.6 NNW 12 21 1007.1 - 0.2 - - - - - - -
22/08:00am 13.9 NNW 12 19 1007.0 - 0.2 - - - - - - -
22/07:30am 13.3 N 8 15 1007.0 - 0.2 - - - - - - -
22/07:00am 13.3 N 11 22 1006.5 - 0.2 - - - - - - -
22/06:30am 12.6 N 12 17 1006.4 - 0.2 - - - - - - -
22/06:00am 11.5 NNE 6 15 1006.4 - 0.2 - - - - - - -
22/05:30am 10.9 NNE 12 20 1006.3 - 0.2 - - - - - - -
22/05:00am 10.8 N 17 24 1006.0 - 0.2 - - - - - - -
22/04:30am 10.6 N 20 28 1006.1 - 0.2 - - - - - - -
22/04:09am 10.5 N 23 33 1005.9 - 0.2 - - - - - - -
22/04:00am 10.4 N 24 31 1006.0 - 0.2 - - - - - - -
22/03:30am 10.5 N 25 31 1006.4 - 0.2 - - - - - - -
22/03:00am 10.5 N 23 30 1006.8 - 0.2 - - - - - - -
22/02:30am 10.4 N 26 33 1007.0 - 0.2 - - - - - - -
22/02:00am 10.1 N 26 34 1007.4 - 0.2 - - - - - - -
22/01:43am 10.1 N 24 34 1007.7 - 0.2 - - - - - - -
22/01:30am 10.0 N 25 33 1007.8 - 0.2 - - - - - - -
22/01:00am 9.7 N 21 27 1008.6 - 0.2 - - - - - - -
22/12:30am 9.5 NNE 16 23 1009.0 - 0.2 - - - - - - -
22/12:00am 9.2 NNE 11 16 1009.7 - 0.2 - - - - - - -
 
Date/Time
EDT
Temp

°C
Wind Pressure Rain
since 9am
mm
Weather Cloud Vis
km
Sea
Height
m
Swell
Dir
 
Speed
knots
Gust
knots
hPa Trend Height
m
Period
s
Dir
21/11:30pm 8.6 NNE 5 9 1010.1 - 0.2 - - - - - - -
21/11:00pm 8.0 NNE 4 7 1010.2 - 0.2 - - - - - - -
21/10:30pm 9.0 NW 1 2 1010.4 - 0.2 - - - - - - -
21/10:00pm 8.3 S 4 7 1009.8 - 0.2 - - - - - - -
21/09:30pm 8.3 SSW 4 6 1010.0 - 0.2 - - - - - - -
21/09:00pm 8.5 SSW 5 7 1009.7 - 0.2 - - - - - - -
21/08:30pm 9.0 S 3 7 1009.7 - 0.2 - - - - - - -
21/08:00pm 9.2 SSW 8 12 1009.2 - 0.2 - - - - - - -
21/07:30pm 9.8 SSW 7 11 1008.7 - 0.2 - - - - - - -
21/07:00pm 10.1 SSW 9 16 1008.2 - 0.2 - - - - - - -
21/06:30pm 10.7 SW 13 18 1007.7 - 0.2 - - - - - - -
21/06:00pm 10.1 SW 14 22 1007.3 - 0.2 - - - - - - -
21/05:30pm 10.1 SW 13 21 1007.0 - 0.2 - - - - - - -
21/05:00pm 11.1 SW 17 26 1006.7 - 0.2 - - - - - - -
21/04:38pm 11.0 SSW 15 25 1006.6 - 0.2 - - - - - - -
21/04:30pm 11.0 SW 16 24 1006.5 - 0.2 - - - - - - -
21/04:00pm 11.1 SW 16 25 1006.5 - 0.2 - - - - - - -
21/03:42pm 10.9 SSW 17 28 1006.4 - 0.2 - - - - - - -
21/03:30pm 10.7 SW 19 27 1006.3 - 0.2 - - - - - - -
21/03:00pm 10.4 SW 15 26 1006.3 - 0.2 - - - - - - -
21/02:30pm 10.2 SW 17 28 1006.0 - 0.2 - - - - - - -
21/02:12pm 10.4 SW 15 25 1005.8 - 0.2 - - - - - - -
21/02:00pm 10.3 SW 10 22 1005.8 - 0.2 - - - - - - -
21/01:35pm 9.9 SW 16 27 1005.6 - 0.2 - - - - - - -
21/01:30pm 10.1 SW 14 26 1005.6 - 0.2 - - - - - - -
21/01:25pm 9.9 SW 15 27 1005.6 - 0.2 - - - - - - -
21/01:00pm 9.7 SW 14 26 1005.4 - 0.2 - - - - - - -
21/12:31pm 9.3 SSW 18 29 1005.0 - 0.2 - - - - - - -
21/12:30pm 9.3 SW 18 28 1004.9 - 0.2 - - - - - - -

Other Formats:

Comma delimited format used in spreadsheet applications
http://www.bom.gov.au/fwo/IDT60701/IDT60701.95986.axf

JavaScript Object Notation format (JSON) in row-major order
http://www.bom.gov.au/fwo/IDT60701/IDT60701.95986.json